sensor_id;sensor_type;location;lat;lon;timestamp;P1;durP1;ratioP1;P2;durP2;ratioP2
30036;SDS011;36325;51.512;-0.382;2023-07-30T00:02:27;10.80;;;1.80;;
30036;SDS011;36325;51.512;-0.382;2023-07-30T00:04:54;10.98;;;2.10;;
30036;SDS011;36325;51.512;-0.382;2023-07-30T00:07:22;11.48;;;1.55;;
30036;SDS011;36325;51.512;-0.382;2023-07-30T00:09:50;8.65;;;1.70;;
30036;SDS011;36325;51.512;-0.382;2023-07-30T00:12:17;5.93;;;1.70;;
30036;SDS011;36325;51.512;-0.382;2023-07-30T00:14:44;7.28;;;1.88;;
30036;SDS011;36325;51.512;-0.382;2023-07-30T00:17:12;10.18;;;1.60;;
30036;SDS011;36325;51.512;-0.382;2023-07-30T00:19:39;9.65;;;2.03;;
30036;SDS011;36325;51.512;-0.382;2023-07-30T00:22:07;10.32;;;1.70;;
30036;SDS011;36325;51.512;-0.382;2023-07-30T00:24:34;6.97;;;1.35;;
30036;SDS011;36325;51.512;-0.382;2023-07-30T00:27:01;8.15;;;1.92;;
30036;SDS011;36325;51.512;-0.382;2023-07-30T00:29:29;7.60;;;1.23;;
30036;SDS011;36325;51.512;-0.382;2023-07-30T00:31:57;11.23;;;2.05;;
30036;SDS011;36325;51.512;-0.382;2023-07-30T00:34:25;4.78;;;1.58;;
30036;SDS011;36325;51.512;-0.382;2023-07-30T00:36:53;6.15;;;1.33;;
30036;SDS011;36325;51.512;-0.382;2023-07-30T00:39:20;9.75;;;1.83;;
30036;SDS011;36325;51.512;-0.382;2023-07-30T00:41:47;3.83;;;0.98;;
30036;SDS011;36325;51.512;-0.382;2023-07-30T00:44:15;4.88;;;1.38;;
30036;SDS011;36325;51.512;-0.382;2023-07-30T00:46:42;8.35;;;1.70;;
30036;SDS011;36325;51.512;-0.382;2023-07-30T00:49:10;2.80;;;1.15;;
30036;SDS011;36325;51.512;-0.382;2023-07-30T00:51:38;8.80;;;1.35;;
30036;SDS011;36325;51.512;-0.382;2023-07-30T00:54:08;8.45;;;1.77;;
30036;SDS011;36325;51.512;-0.382;2023-07-30T00:56:37;12.18;;;1.77;;
30036;SDS011;36325;51.512;-0.382;2023-07-30T00:59:05;8.15;;;1.75;;
30036;SDS011;36325;51.512;-0.382;2023-07-30T01:01:33;10.60;;;1.70;;
30036;SDS011;36325;51.512;-0.382;2023-07-30T01:04:03;9.75;;;1.80;;
30036;SDS011;36325;51.512;-0.382;2023-07-30T01:06:31;7.28;;;1.42;;
30036;SDS011;36325;51.512;-0.382;2023-07-30T01:08:59;11.32;;;1.73;;
30036;SDS011;36325;51.512;-0.382;2023-07-30T01:11:27;4.75;;;1.30;;
30036;SDS011;36325;51.512;-0.382;2023-07-30T01:13:56;4.07;;;1.50;;
30036;SDS011;36325;51.512;-0.382;2023-07-30T01:16:24;8.63;;;2.13;;
30036;SDS011;36325;51.512;-0.382;2023-07-30T01:18:52;9.32;;;1.55;;
30036;SDS011;36325;51.512;-0.382;2023-07-30T01:21:21;10.75;;;1.35;;
30036;SDS011;36325;51.512;-0.382;2023-07-30T01:23:49;17.25;;;1.75;;
30036;SDS011;36325;51.512;-0.382;2023-07-30T01:26:19;7.22;;;1.38;;
30036;SDS011;36325;51.512;-0.382;2023-07-30T01:28:53;10.35;;;1.65;;
30036;SDS011;36325;51.512;-0.382;2023-07-30T01:31:23;9.73;;;1.90;;
30036;SDS011;36325;51.512;-0.382;2023-07-30T01:33:54;4.53;;;1.05;;
30036;SDS011;36325;51.512;-0.382;2023-07-30T01:36:22;7.07;;;1.48;;
30036;SDS011;36325;51.512;-0.382;2023-07-30T01:38:50;7.32;;;1.42;;
30036;SDS011;36325;51.512;-0.382;2023-07-30T01:41:19;11.75;;;1.20;;
30036;SDS011;36325;51.512;-0.382;2023-07-30T01:43:47;12.70;;;1.65;;
30036;SDS011;36325;51.512;-0.382;2023-07-30T01:46:15;3.22;;;0.98;;
30036;SDS011;36325;51.512;-0.382;2023-07-30T01:48:42;16.10;;;1.83;;
30036;SDS011;36325;51.512;-0.382;2023-07-30T01:51:10;5.88;;;1.48;;
30036;SDS011;36325;51.512;-0.382;2023-07-30T01:53:38;6.50;;;1.42;;
30036;SDS011;36325;51.512;-0.382;2023-07-30T01:56:12;4.32;;;1.15;;
30036;SDS011;36325;51.512;-0.382;2023-07-30T01:58:44;4.55;;;1.00;;
30036;SDS011;36325;51.512;-0.382;2023-07-30T02:01:11;8.15;;;1.23;;
30036;SDS011;36325;51.512;-0.382;2023-07-30T02:03:39;7.43;;;2.28;;
30036;SDS011;36325;51.512;-0.382;2023-07-30T02:06:10;8.65;;;1.60;;
30036;SDS011;36325;51.512;-0.382;2023-07-30T02:08:38;11.52;;;1.77;;
30036;SDS011;36325;51.512;-0.382;2023-07-30T02:11:06;9.88;;;1.40;;
30036;SDS011;36325;51.512;-0.382;2023-07-30T02:13:33;5.60;;;1.60;;
30036;SDS011;36325;51.512;-0.382;2023-07-30T02:16:01;8.45;;;1.80;;
30036;SDS011;36325;51.512;-0.382;2023-07-30T02:18:29;12.07;;;1.60;;
30036;SDS011;36325;51.512;-0.382;2023-07-30T02:20:57;8.57;;;1.38;;
30036;SDS011;36325;51.512;-0.382;2023-07-30T02:23:25;9.70;;;1.70;;
30036;SDS011;36325;51.512;-0.382;2023-07-30T02:25:52;8.00;;;1.67;;
30036;SDS011;36325;51.512;-0.382;2023-07-30T02:28:20;13.00;;;1.63;;
30036;SDS011;36325;51.512;-0.382;2023-07-30T02:30:49;7.13;;;1.30;;
30036;SDS011;36325;51.512;-0.382;2023-07-30T02:33:16;13.02;;;1.25;;
30036;SDS011;36325;51.512;-0.382;2023-07-30T02:35:44;7.60;;;1.20;;
30036;SDS011;36325;51.512;-0.382;2023-07-30T02:38:12;11.18;;;1.48;;
30036;SDS011;36325;51.512;-0.382;2023-07-30T02:40:39;20.25;;;1.40;;
30036;SDS011;36325;51.512;-0.382;2023-07-30T02:43:07;7.22;;;1.88;;
30036;SDS011;36325;51.512;-0.382;2023-07-30T02:45:35;7.65;;;0.95;;
30036;SDS011;36325;51.512;-0.382;2023-07-30T02:48:03;10.68;;;1.27;;
30036;SDS011;36325;51.512;-0.382;2023-07-30T02:50:31;7.43;;;1.27;;
30036;SDS011;36325;51.512;-0.382;2023-07-30T02:52:59;10.50;;;1.55;;
30036;SDS011;36325;51.512;-0.382;2023-07-30T02:55:26;8.70;;;1.30;;
30036;SDS011;36325;51.512;-0.382;2023-07-30T02:57:53;11.80;;;1.10;;
30036;SDS011;36325;51.512;-0.382;2023-07-30T03:00:24;8.07;;;1.35;;
30036;SDS011;36325;51.512;-0.382;2023-07-30T03:02:51;3.33;;;0.95;;
30036;SDS011;36325;51.512;-0.382;2023-07-30T03:05:19;5.30;;;1.23;;
30036;SDS011;36325;51.512;-0.382;2023-07-30T03:07:46;6.50;;;1.27;;
30036;SDS011;36325;51.512;-0.382;2023-07-30T03:10:14;5.15;;;1.00;;
30036;SDS011;36325;51.512;-0.382;2023-07-30T03:12:41;5.38;;;0.95;;
30036;SDS011;36325;51.512;-0.382;2023-07-30T03:15:09;4.72;;;0.82;;
30036;SDS011;36325;51.512;-0.382;2023-07-30T03:17:36;8.25;;;1.33;;
30036;SDS011;36325;51.512;-0.382;2023-07-30T03:20:04;1.88;;;0.80;;
30036;SDS011;36325;51.512;-0.382;2023-07-30T03:22:32;6.97;;;2.10;;
30036;SDS011;36325;51.512;-0.382;2023-07-30T03:24:59;7.28;;;1.42;;
30036;SDS011;36325;51.512;-0.382;2023-07-30T03:27:27;6.82;;;1.27;;
30036;SDS011;36325;51.512;-0.382;2023-07-30T03:29:54;5.32;;;1.25;;
30036;SDS011;36325;51.512;-0.382;2023-07-30T03:32:22;9.38;;;2.33;;
30036;SDS011;36325;51.512;-0.382;2023-07-30T03:34:49;6.25;;;1.17;;
30036;SDS011;36325;51.512;-0.382;2023-07-30T03:37:19;4.45;;;1.30;;
30036;SDS011;36325;51.512;-0.382;2023-07-30T03:39:46;5.65;;;1.13;;
30036;SDS011;36325;51.512;-0.382;2023-07-30T03:42:15;9.15;;;1.23;;
30036;SDS011;36325;51.512;-0.382;2023-07-30T03:44:43;8.73;;;1.40;;
30036;SDS011;36325;51.512;-0.382;2023-07-30T03:47:11;6.35;;;1.45;;
30036;SDS011;36325;51.512;-0.382;2023-07-30T03:49:38;9.73;;;1.42;;
30036;SDS011;36325;51.512;-0.382;2023-07-30T03:52:06;9.88;;;1.42;;
30036;SDS011;36325;51.512;-0.382;2023-07-30T03:57:05;5.53;;;1.20;;
30036;SDS011;36325;51.512;-0.382;2023-07-30T03:59:33;4.47;;;0.90;;
30036;SDS011;36325;51.512;-0.382;2023-07-30T04:02:01;4.80;;;0.90;;
30036;SDS011;36325;51.512;-0.382;2023-07-30T04:04:29;9.52;;;1.75;;
30036;SDS011;36325;51.512;-0.382;2023-07-30T04:06:58;10.85;;;1.48;;
30036;SDS011;36325;51.512;-0.382;2023-07-30T04:09:27;11.52;;;1.92;;
30036;SDS011;36325;51.512;-0.382;2023-07-30T04:11:59;6.63;;;1.45;;
30036;SDS011;36325;51.512;-0.382;2023-07-30T04:14:28;8.85;;;1.08;;
30036;SDS011;36325;51.512;-0.382;2023-07-30T04:16:56;8.27;;;1.23;;
30036;SDS011;36325;51.512;-0.382;2023-07-30T04:19:24;8.35;;;1.40;;
30036;SDS011;36325;51.512;-0.382;2023-07-30T04:21:56;10.98;;;1.80;;
30036;SDS011;36325;51.512;-0.382;2023-07-30T04:24:24;6.75;;;1.25;;
30036;SDS011;36325;51.512;-0.382;2023-07-30T04:26:57;6.57;;;1.35;;
30036;SDS011;36325;51.512;-0.382;2023-07-30T04:29:25;9.35;;;1.38;;
30036;SDS011;36325;51.512;-0.382;2023-07-30T04:31:55;4.43;;;0.88;;
30036;SDS011;36325;51.512;-0.382;2023-07-30T04:34:28;5.95;;;1.23;;
30036;SDS011;36325;51.512;-0.382;2023-07-30T04:36:56;7.88;;;1.40;;
30036;SDS011;36325;51.512;-0.382;2023-07-30T04:39:24;7.93;;;1.40;;
30036;SDS011;36325;51.512;-0.382;2023-07-30T04:41:52;8.85;;;1.73;;
30036;SDS011;36325;51.512;-0.382;2023-07-30T04:44:26;8.40;;;1.40;;
30036;SDS011;36325;51.512;-0.382;2023-07-30T04:46:59;8.90;;;1.45;;
30036;SDS011;36325;51.512;-0.382;2023-07-30T04:49:27;11.98;;;1.48;;
30036;SDS011;36325;51.512;-0.382;2023-07-30T04:51:55;6.90;;;1.33;;
30036;SDS011;36325;51.512;-0.382;2023-07-30T04:54:23;15.15;;;2.13;;
30036;SDS011;36325;51.512;-0.382;2023-07-30T04:56:52;5.97;;;1.42;;
30036;SDS011;36325;51.512;-0.382;2023-07-30T04:59:19;13.27;;;1.58;;
30036;SDS011;36325;51.512;-0.382;2023-07-30T05:01:50;13.07;;;2.08;;
30036;SDS011;36325;51.512;-0.382;2023-07-30T05:04:19;11.07;;;1.42;;
30036;SDS011;36325;51.512;-0.382;2023-07-30T05:06:46;6.72;;;1.60;;
30036;SDS011;36325;51.512;-0.382;2023-07-30T05:09:14;9.50;;;1.40;;
30036;SDS011;36325;51.512;-0.382;2023-07-30T05:11:43;9.43;;;1.63;;
30036;SDS011;36325;51.512;-0.382;2023-07-30T05:16:45;7.72;;;1.35;;
30036;SDS011;36325;51.512;-0.382;2023-07-30T05:19:12;14.60;;;2.33;;
30036;SDS011;36325;51.512;-0.382;2023-07-30T05:21:40;46.45;;;2.53;;
30036;SDS011;36325;51.512;-0.382;2023-07-30T05:24:08;13.23;;;1.80;;
30036;SDS011;36325;51.512;-0.382;2023-07-30T05:26:35;11.57;;;1.95;;
30036;SDS011;36325;51.512;-0.382;2023-07-30T05:29:03;17.17;;;2.47;;
30036;SDS011;36325;51.512;-0.382;2023-07-30T05:31:31;14.88;;;2.35;;
30036;SDS011;36325;51.512;-0.382;2023-07-30T05:34:01;13.25;;;2.17;;
30036;SDS011;36325;51.512;-0.382;2023-07-30T05:36:28;8.15;;;1.77;;
30036;SDS011;36325;51.512;-0.382;2023-07-30T05:38:56;10.43;;;1.80;;
30036;SDS011;36325;51.512;-0.382;2023-07-30T05:41:24;6.30;;;2.03;;
30036;SDS011;36325;51.512;-0.382;2023-07-30T05:43:51;7.97;;;2.05;;
30036;SDS011;36325;51.512;-0.382;2023-07-30T05:46:20;20.20;;;1.80;;
30036;SDS011;36325;51.512;-0.382;2023-07-30T05:48:47;22.90;;;3.22;;
30036;SDS011;36325;51.512;-0.382;2023-07-30T05:51:15;7.40;;;1.58;;
30036;SDS011;36325;51.512;-0.382;2023-07-30T05:53:44;16.42;;;2.40;;
30036;SDS011;36325;51.512;-0.382;2023-07-30T05:56:12;13.70;;;2.03;;
30036;SDS011;36325;51.512;-0.382;2023-07-30T05:58:42;6.47;;;1.40;;
30036;SDS011;36325;51.512;-0.382;2023-07-30T06:01:11;6.63;;;1.63;;
30036;SDS011;36325;51.512;-0.382;2023-07-30T06:03:41;5.47;;;1.42;;
30036;SDS011;36325;51.512;-0.382;2023-07-30T06:06:09;8.10;;;1.65;;
30036;SDS011;36325;51.512;-0.382;2023-07-30T06:08:36;8.52;;;1.48;;
30036;SDS011;36325;51.512;-0.382;2023-07-30T06:11:04;11.02;;;1.63;;
30036;SDS011;36325;51.512;-0.382;2023-07-30T06:13:32;9.30;;;1.65;;
30036;SDS011;36325;51.512;-0.382;2023-07-30T06:16:00;14.43;;;2.88;;
30036;SDS011;36325;51.512;-0.382;2023-07-30T06:18:27;15.20;;;2.13;;
30036;SDS011;36325;51.512;-0.382;2023-07-30T06:20:55;11.38;;;2.58;;
30036;SDS011;36325;51.512;-0.382;2023-07-30T06:23:24;10.02;;;1.58;;
30036;SDS011;36325;51.512;-0.382;2023-07-30T06:25:53;7.60;;;1.85;;
30036;SDS011;36325;51.512;-0.382;2023-07-30T06:28:22;13.80;;;2.10;;
30036;SDS011;36325;51.512;-0.382;2023-07-30T06:30:53;13.02;;;2.15;;
30036;SDS011;36325;51.512;-0.382;2023-07-30T06:33:21;9.15;;;1.65;;
30036;SDS011;36325;51.512;-0.382;2023-07-30T06:35:58;17.42;;;2.63;;
30036;SDS011;36325;51.512;-0.382;2023-07-30T06:38:26;7.05;;;1.73;;
30036;SDS011;36325;51.512;-0.382;2023-07-30T06:40:55;8.55;;;1.17;;
30036;SDS011;36325;51.512;-0.382;2023-07-30T06:43:39;10.18;;;2.03;;
30036;SDS011;36325;51.512;-0.382;2023-07-30T06:46:09;10.70;;;2.13;;
30036;SDS011;36325;51.512;-0.382;2023-07-30T06:48:38;14.13;;;2.85;;
30036;SDS011;36325;51.512;-0.382;2023-07-30T06:51:06;16.33;;;2.05;;
30036;SDS011;36325;51.512;-0.382;2023-07-30T06:53:37;8.75;;;1.42;;
30036;SDS011;36325;51.512;-0.382;2023-07-30T06:56:06;15.05;;;2.13;;
30036;SDS011;36325;51.512;-0.382;2023-07-30T06:58:33;10.68;;;1.73;;
30036;SDS011;36325;51.512;-0.382;2023-07-30T07:01:01;16.27;;;1.67;;
30036;SDS011;36325;51.512;-0.382;2023-07-30T07:03:32;15.50;;;3.03;;
30036;SDS011;36325;51.512;-0.382;2023-07-30T07:06:02;7.85;;;1.88;;
30036;SDS011;36325;51.512;-0.382;2023-07-30T07:08:29;12.23;;;1.85;;
30036;SDS011;36325;51.512;-0.382;2023-07-30T07:11:00;12.90;;;2.28;;
30036;SDS011;36325;51.512;-0.382;2023-07-30T07:13:30;17.75;;;2.20;;
30036;SDS011;36325;51.512;-0.382;2023-07-30T07:15:58;7.47;;;1.50;;
30036;SDS011;36325;51.512;-0.382;2023-07-30T07:18:27;11.50;;;1.98;;
30036;SDS011;36325;51.512;-0.382;2023-07-30T07:21:00;14.32;;;1.95;;
30036;SDS011;36325;51.512;-0.382;2023-07-30T07:23:28;14.10;;;2.33;;
30036;SDS011;36325;51.512;-0.382;2023-07-30T07:25:58;13.73;;;1.75;;
30036;SDS011;36325;51.512;-0.382;2023-07-30T07:28:26;8.30;;;1.33;;
30036;SDS011;36325;51.512;-0.382;2023-07-30T07:30:58;7.65;;;1.58;;
30036;SDS011;36325;51.512;-0.382;2023-07-30T07:33:30;6.45;;;1.80;;
30036;SDS011;36325;51.512;-0.382;2023-07-30T07:36:05;5.95;;;1.13;;
30036;SDS011;36325;51.512;-0.382;2023-07-30T07:38:42;9.45;;;1.42;;
30036;SDS011;36325;51.512;-0.382;2023-07-30T07:43:47;7.82;;;1.58;;
30036;SDS011;36325;51.512;-0.382;2023-07-30T07:46:15;12.45;;;2.00;;
30036;SDS011;36325;51.512;-0.382;2023-07-30T07:48:43;11.38;;;2.35;;
30036;SDS011;36325;51.512;-0.382;2023-07-30T07:51:12;11.80;;;1.58;;
30036;SDS011;36325;51.512;-0.382;2023-07-30T07:53:42;10.93;;;1.65;;
30036;SDS011;36325;51.512;-0.382;2023-07-30T07:56:09;14.30;;;1.58;;
30036;SDS011;36325;51.512;-0.382;2023-07-30T07:58:47;6.75;;;1.25;;
30036;SDS011;36325;51.512;-0.382;2023-07-30T08:01:15;12.18;;;2.15;;
30036;SDS011;36325;51.512;-0.382;2023-07-30T08:03:42;3.80;;;1.13;;
30036;SDS011;36325;51.512;-0.382;2023-07-30T08:06:11;11.05;;;2.28;;
30036;SDS011;36325;51.512;-0.382;2023-07-30T08:08:39;9.32;;;1.98;;
30036;SDS011;36325;51.512;-0.382;2023-07-30T08:11:07;6.43;;;1.85;;
30036;SDS011;36325;51.512;-0.382;2023-07-30T08:13:35;15.13;;;2.72;;
30036;SDS011;36325;51.512;-0.382;2023-07-30T08:16:03;17.05;;;2.25;;
30036;SDS011;36325;51.512;-0.382;2023-07-30T08:18:34;9.95;;;1.80;;
30036;SDS011;36325;51.512;-0.382;2023-07-30T08:21:26;8.82;;;1.52;;
30036;SDS011;36325;51.512;-0.382;2023-07-30T08:23:56;7.15;;;1.80;;
30036;SDS011;36325;51.512;-0.382;2023-07-30T08:28:54;13.35;;;2.10;;
30036;SDS011;36325;51.512;-0.382;2023-07-30T08:31:23;5.40;;;1.33;;
30036;SDS011;36325;51.512;-0.382;2023-07-30T08:33:50;7.57;;;1.38;;
30036;SDS011;36325;51.512;-0.382;2023-07-30T08:36:18;4.60;;;1.67;;
30036;SDS011;36325;51.512;-0.382;2023-07-30T08:38:49;10.82;;;1.63;;
30036;SDS011;36325;51.512;-0.382;2023-07-30T08:41:22;14.50;;;1.63;;
30036;SDS011;36325;51.512;-0.382;2023-07-30T08:43:49;8.30;;;1.88;;
30036;SDS011;36325;51.512;-0.382;2023-07-30T08:46:31;6.57;;;1.83;;
30036;SDS011;36325;51.512;-0.382;2023-07-30T08:49:00;7.85;;;1.30;;
30036;SDS011;36325;51.512;-0.382;2023-07-30T08:51:28;8.65;;;1.65;;
30036;SDS011;36325;51.512;-0.382;2023-07-30T08:53:58;12.35;;;2.08;;
30036;SDS011;36325;51.512;-0.382;2023-07-30T08:56:30;9.48;;;2.05;;
30036;SDS011;36325;51.512;-0.382;2023-07-30T09:01:32;11.80;;;1.73;;
30036;SDS011;36325;51.512;-0.382;2023-07-30T09:04:05;6.53;;;1.73;;
30036;SDS011;36325;51.512;-0.382;2023-07-30T09:06:34;10.25;;;2.10;;
30036;SDS011;36325;51.512;-0.382;2023-07-30T09:09:02;9.45;;;1.80;;
30036;SDS011;36325;51.512;-0.382;2023-07-30T09:11:30;12.80;;;2.50;;
30036;SDS011;36325;51.512;-0.382;2023-07-30T09:14:00;7.60;;;1.35;;
30036;SDS011;36325;51.512;-0.382;2023-07-30T09:16:30;9.07;;;1.80;;
30036;SDS011;36325;51.512;-0.382;2023-07-30T09:18:58;8.48;;;1.02;;
30036;SDS011;36325;51.512;-0.382;2023-07-30T09:21:30;8.32;;;2.38;;
30036;SDS011;36325;51.512;-0.382;2023-07-30T09:24:02;11.70;;;2.05;;
30036;SDS011;36325;51.512;-0.382;2023-07-30T09:26:45;7.47;;;2.47;;
30036;SDS011;36325;51.512;-0.382;2023-07-30T09:29:13;8.80;;;1.85;;
30036;SDS011;36325;51.512;-0.382;2023-07-30T09:31:48;12.90;;;1.63;;
30036;SDS011;36325;51.512;-0.382;2023-07-30T09:34:22;4.32;;;1.52;;
30036;SDS011;36325;51.512;-0.382;2023-07-30T09:36:51;6.13;;;1.75;;
30036;SDS011;36325;51.512;-0.382;2023-07-30T09:41:51;10.98;;;2.28;;
30036;SDS011;36325;51.512;-0.382;2023-07-30T09:44:21;6.13;;;1.45;;
30036;SDS011;36325;51.512;-0.382;2023-07-30T09:46:50;8.52;;;1.70;;
30036;SDS011;36325;51.512;-0.382;2023-07-30T09:49:18;13.32;;;1.98;;
30036;SDS011;36325;51.512;-0.382;2023-07-30T09:51:45;7.90;;;1.38;;
30036;SDS011;36325;51.512;-0.382;2023-07-30T09:54:19;11.15;;;2.17;;
30036;SDS011;36325;51.512;-0.382;2023-07-30T09:56:47;7.25;;;1.70;;
30036;SDS011;36325;51.512;-0.382;2023-07-30T09:59:15;8.95;;;1.60;;
30036;SDS011;36325;51.512;-0.382;2023-07-30T10:01:43;8.77;;;1.48;;
30036;SDS011;36325;51.512;-0.382;2023-07-30T10:04:13;12.02;;;2.08;;
30036;SDS011;36325;51.512;-0.382;2023-07-30T10:07:01;10.90;;;1.95;;
30036;SDS011;36325;51.512;-0.382;2023-07-30T10:09:37;7.75;;;1.75;;
30036;SDS011;36325;51.512;-0.382;2023-07-30T10:12:16;9.50;;;1.88;;
30036;SDS011;36325;51.512;-0.382;2023-07-30T10:14:49;10.52;;;1.88;;
30036;SDS011;36325;51.512;-0.382;2023-07-30T10:17:17;4.18;;;1.63;;
30036;SDS011;36325;51.512;-0.382;2023-07-30T10:19:49;10.20;;;1.60;;
30036;SDS011;36325;51.512;-0.382;2023-07-30T10:24:58;6.57;;;1.88;;
30036;SDS011;36325;51.512;-0.382;2023-07-30T10:27:37;5.28;;;1.42;;
30036;SDS011;36325;51.512;-0.382;2023-07-30T10:30:12;7.65;;;2.13;;
30036;SDS011;36325;51.512;-0.382;2023-07-30T10:35:41;6.50;;;1.42;;
30036;SDS011;36325;51.512;-0.382;2023-07-30T10:38:22;4.30;;;1.27;;
30036;SDS011;36325;51.512;-0.382;2023-07-30T10:41:08;6.78;;;1.13;;
30036;SDS011;36325;51.512;-0.382;2023-07-30T10:43:52;11.15;;;1.80;;
30036;SDS011;36325;51.512;-0.382;2023-07-30T10:46:29;7.65;;;1.73;;
30036;SDS011;36325;51.512;-0.382;2023-07-30T10:48:57;14.60;;;1.77;;
30036;SDS011;36325;51.512;-0.382;2023-07-30T10:51:28;3.95;;;1.45;;
30036;SDS011;36325;51.512;-0.382;2023-07-30T10:54:01;5.28;;;1.80;;
30036;SDS011;36325;51.512;-0.382;2023-07-30T10:56:36;8.50;;;1.80;;
30036;SDS011;36325;51.512;-0.382;2023-07-30T10:59:10;5.78;;;1.65;;
30036;SDS011;36325;51.512;-0.382;2023-07-30T11:01:39;5.70;;;1.65;;
30036;SDS011;36325;51.512;-0.382;2023-07-30T11:04:14;10.45;;;2.30;;
30036;SDS011;36325;51.512;-0.382;2023-07-30T11:06:46;10.10;;;2.33;;
30036;SDS011;36325;51.512;-0.382;2023-07-30T11:09:20;7.72;;;1.35;;
30036;SDS011;36325;51.512;-0.382;2023-07-30T11:11:50;8.88;;;2.03;;
30036;SDS011;36325;51.512;-0.382;2023-07-30T11:14:19;3.50;;;1.25;;
30036;SDS011;36325;51.512;-0.382;2023-07-30T11:16:59;7.53;;;1.27;;
30036;SDS011;36325;51.512;-0.382;2023-07-30T11:19:44;4.20;;;1.10;;
30036;SDS011;36325;51.512;-0.382;2023-07-30T11:22:12;4.20;;;0.90;;
30036;SDS011;36325;51.512;-0.382;2023-07-30T11:24:39;7.15;;;0.95;;
30036;SDS011;36325;51.512;-0.382;2023-07-30T11:27:08;8.63;;;1.15;;
30036;SDS011;36325;51.512;-0.382;2023-07-30T11:29:36;3.47;;;1.23;;
30036;SDS011;36325;51.512;-0.382;2023-07-30T11:32:05;3.78;;;1.02;;
30036;SDS011;36325;51.512;-0.382;2023-07-30T11:34:32;7.85;;;1.20;;
30036;SDS011;36325;51.512;-0.382;2023-07-30T11:37:05;5.93;;;0.90;;
30036;SDS011;36325;51.512;-0.382;2023-07-30T11:39:33;2.45;;;1.63;;
30036;SDS011;36325;51.512;-0.382;2023-07-30T11:42:00;1.08;;;0.45;;
30036;SDS011;36325;51.512;-0.382;2023-07-30T11:44:30;1.50;;;0.70;;
30036;SDS011;36325;51.512;-0.382;2023-07-30T11:47:00;2.77;;;0.80;;
30036;SDS011;36325;51.512;-0.382;2023-07-30T11:49:29;3.88;;;1.25;;
30036;SDS011;36325;51.512;-0.382;2023-07-30T11:52:10;2.25;;;0.60;;
30036;SDS011;36325;51.512;-0.382;2023-07-30T11:54:37;1.50;;;0.65;;
30036;SDS011;36325;51.512;-0.382;2023-07-30T11:57:07;1.17;;;0.63;;
30036;SDS011;36325;51.512;-0.382;2023-07-30T11:59:35;4.95;;;0.98;;
30036;SDS011;36325;51.512;-0.382;2023-07-30T12:02:04;3.33;;;0.80;;
30036;SDS011;36325;51.512;-0.382;2023-07-30T12:04:45;0.88;;;0.60;;
30036;SDS011;36325;51.512;-0.382;2023-07-30T12:10:26;1.50;;;0.80;;
30036;SDS011;36325;51.512;-0.382;2023-07-30T12:12:54;2.42;;;0.93;;
30036;SDS011;36325;51.512;-0.382;2023-07-30T12:15:21;2.20;;;0.60;;
30036;SDS011;36325;51.512;-0.382;2023-07-30T12:17:49;5.57;;;1.50;;
30036;SDS011;36325;51.512;-0.382;2023-07-30T12:20:17;4.18;;;1.13;;
30036;SDS011;36325;51.512;-0.382;2023-07-30T12:22:46;2.22;;;1.13;;
30036;SDS011;36325;51.512;-0.382;2023-07-30T12:25:14;3.05;;;1.17;;
30036;SDS011;36325;51.512;-0.382;2023-07-30T12:27:41;2.65;;;1.48;;
30036;SDS011;36325;51.512;-0.382;2023-07-30T12:30:11;2.28;;;1.33;;
30036;SDS011;36325;51.512;-0.382;2023-07-30T12:32:40;3.28;;;1.48;;
30036;SDS011;36325;51.512;-0.382;2023-07-30T12:35:10;5.10;;;1.83;;
30036;SDS011;36325;51.512;-0.382;2023-07-30T12:37:38;2.92;;;1.85;;
30036;SDS011;36325;51.512;-0.382;2023-07-30T12:40:06;2.25;;;1.65;;
30036;SDS011;36325;51.512;-0.382;2023-07-30T12:42:35;8.73;;;2.45;;
30036;SDS011;36325;51.512;-0.382;2023-07-30T12:45:03;2.50;;;1.77;;
30036;SDS011;36325;51.512;-0.382;2023-07-30T12:47:31;4.85;;;2.63;;
30036;SDS011;36325;51.512;-0.382;2023-07-30T12:49:58;3.92;;;2.30;;
30036;SDS011;36325;51.512;-0.382;2023-07-30T12:52:26;2.33;;;1.50;;
30036;SDS011;36325;51.512;-0.382;2023-07-30T12:54:56;2.72;;;1.90;;
30036;SDS011;36325;51.512;-0.382;2023-07-30T12:57:25;5.00;;;2.10;;
30036;SDS011;36325;51.512;-0.382;2023-07-30T12:59:52;5.40;;;2.42;;
30036;SDS011;36325;51.512;-0.382;2023-07-30T13:02:23;5.43;;;2.00;;
30036;SDS011;36325;51.512;-0.382;2023-07-30T13:04:51;4.03;;;2.30;;
30036;SDS011;36325;51.512;-0.382;2023-07-30T13:07:19;4.20;;;2.20;;
30036;SDS011;36325;51.512;-0.382;2023-07-30T13:09:46;3.67;;;2.15;;
30036;SDS011;36325;51.512;-0.382;2023-07-30T13:12:17;2.30;;;1.55;;
30036;SDS011;36325;51.512;-0.382;2023-07-30T13:14:45;3.45;;;1.80;;
30036;SDS011;36325;51.512;-0.382;2023-07-30T13:17:12;2.53;;;1.75;;
30036;SDS011;36325;51.512;-0.382;2023-07-30T13:19:40;5.35;;;2.13;;
30036;SDS011;36325;51.512;-0.382;2023-07-30T13:22:08;5.45;;;1.92;;
30036;SDS011;36325;51.512;-0.382;2023-07-30T13:24:35;5.70;;;2.28;;
30036;SDS011;36325;51.512;-0.382;2023-07-30T13:27:03;6.00;;;3.20;;
30036;SDS011;36325;51.512;-0.382;2023-07-30T13:29:30;4.95;;;1.80;;
30036;SDS011;36325;51.512;-0.382;2023-07-30T13:31:58;5.93;;;2.20;;
30036;SDS011;36325;51.512;-0.382;2023-07-30T13:34:25;4.63;;;1.88;;
30036;SDS011;36325;51.512;-0.382;2023-07-30T13:36:53;6.22;;;2.28;;
30036;SDS011;36325;51.512;-0.382;2023-07-30T13:39:20;4.75;;;2.08;;
30036;SDS011;36325;51.512;-0.382;2023-07-30T13:41:48;4.38;;;2.20;;
30036;SDS011;36325;51.512;-0.382;2023-07-30T13:44:16;4.15;;;2.40;;
30036;SDS011;36325;51.512;-0.382;2023-07-30T13:46:43;4.07;;;2.58;;
30036;SDS011;36325;51.512;-0.382;2023-07-30T13:49:12;7.10;;;2.83;;
30036;SDS011;36325;51.512;-0.382;2023-07-30T13:51:40;7.20;;;2.92;;
30036;SDS011;36325;51.512;-0.382;2023-07-30T13:54:07;6.57;;;3.10;;
30036;SDS011;36325;51.512;-0.382;2023-07-30T13:56:37;7.45;;;3.60;;
30036;SDS011;36325;51.512;-0.382;2023-07-30T13:59:05;6.72;;;2.90;;
30036;SDS011;36325;51.512;-0.382;2023-07-30T14:01:33;7.18;;;3.35;;
30036;SDS011;36325;51.512;-0.382;2023-07-30T14:04:02;5.80;;;3.85;;
30036;SDS011;36325;51.512;-0.382;2023-07-30T14:06:30;10.35;;;3.63;;
30036;SDS011;36325;51.512;-0.382;2023-07-30T14:08:58;6.43;;;3.35;;
30036;SDS011;36325;51.512;-0.382;2023-07-30T14:11:26;6.32;;;3.30;;
30036;SDS011;36325;51.512;-0.382;2023-07-30T14:13:55;7.68;;;3.33;;
30036;SDS011;36325;51.512;-0.382;2023-07-30T14:16:22;6.65;;;3.38;;
30036;SDS011;36325;51.512;-0.382;2023-07-30T14:18:50;7.57;;;3.30;;
30036;SDS011;36325;51.512;-0.382;2023-07-30T14:21:17;9.13;;;3.60;;
30036;SDS011;36325;51.512;-0.382;2023-07-30T14:23:45;8.23;;;4.10;;
30036;SDS011;36325;51.512;-0.382;2023-07-30T14:26:12;14.65;;;4.55;;
30036;SDS011;36325;51.512;-0.382;2023-07-30T14:28:40;18.02;;;4.57;;
30036;SDS011;36325;51.512;-0.382;2023-07-30T14:31:08;11.00;;;2.90;;
30036;SDS011;36325;51.512;-0.382;2023-07-30T14:33:37;3.60;;;1.20;;
30036;SDS011;36325;51.512;-0.382;2023-07-30T14:36:05;1.15;;;0.50;;
30036;SDS011;36325;51.512;-0.382;2023-07-30T14:38:34;1.20;;;0.60;;
30036;SDS011;36325;51.512;-0.382;2023-07-30T14:41:03;4.22;;;0.73;;
30036;SDS011;36325;51.512;-0.382;2023-07-30T14:43:32;1.27;;;0.90;;
30036;SDS011;36325;51.512;-0.382;2023-07-30T14:46:00;2.22;;;0.60;;
30036;SDS011;36325;51.512;-0.382;2023-07-30T14:48:28;2.90;;;0.70;;
30036;SDS011;36325;51.512;-0.382;2023-07-30T14:50:55;4.30;;;1.10;;
30036;SDS011;36325;51.512;-0.382;2023-07-30T14:53:23;2.45;;;1.02;;
30036;SDS011;36325;51.512;-0.382;2023-07-30T14:55:51;3.05;;;1.27;;
30036;SDS011;36325;51.512;-0.382;2023-07-30T14:58:20;3.92;;;1.00;;
30036;SDS011;36325;51.512;-0.382;2023-07-30T15:00:48;1.13;;;0.80;;
30036;SDS011;36325;51.512;-0.382;2023-07-30T15:03:16;2.67;;;0.82;;
30036;SDS011;36325;51.512;-0.382;2023-07-30T15:05:47;1.38;;;1.00;;
30036;SDS011;36325;51.512;-0.382;2023-07-30T15:08:16;1.23;;;0.63;;